Time;durP1;ratioP1;P1;durP2;ratioP2;P2;SDS_P1;SDS_P2;PMS_P1;PMS_P2;Temp;Humidity;BMP_temperature;BMP_pressure;BME280_temperature;BME280_humidity;BME280_pressure;Samples;Min_cycle;Max_cycle;Signal;HPM_P1;HPM_P2
2022/09/15 00:00:43;;;;;;;0.73;0.25;;;;;;;-142.37;100.00;59669.53;4974613;28;20037;-67
2022/09/15 00:03:08;;;;;;;0.45;0.10;;;;;;;-142.37;100.00;59669.53;4974581;28;20396;-66
2022/09/15 00:05:34;;;;;;;2.65;0.47;;;;;;;-142.37;100.00;59669.53;4974477;28;20400;-67
2022/09/15 00:08:00;;;;;;;0.25;0.10;;;;;;;-142.37;100.00;59669.53;4974460;28;20030;-66
2022/09/15 00:10:27;;;;;;;0.38;0.20;;;;;;;-142.37;100.00;59669.53;4974324;28;20027;-67
2022/09/15 00:12:54;;;;;;;0.20;0.10;;;;;;;-142.37;100.00;59669.53;4957033;28;20042;-67
2022/09/15 00:15:21;;;;;;;7.43;0.55;;;;;;;-142.37;100.00;59669.53;4974140;28;20073;-67
2022/09/15 00:17:49;;;;;;;1.85;0.57;;;;;;;-142.37;100.00;59669.53;4957177;28;20034;-66
2022/09/15 00:20:16;;;;;;;2.08;0.30;;;;;;;-142.37;100.00;59669.53;4974504;28;20041;-67
2022/09/15 00:22:43;;;;;;;1.17;0.20;;;;;;;-142.37;100.00;59669.53;4974401;28;20066;-68
2022/09/15 00:25:08;;;;;;;0.30;0.17;;;;;;;-142.37;100.00;59669.53;4956766;28;20031;-67
2022/09/15 00:27:34;;;;;;;3.08;0.20;;;;;;;-142.37;100.00;59669.53;4956862;28;20054;-68
2022/09/15 00:30:00;;;;;;;2.50;0.28;;;;;;;-142.37;100.00;59669.53;4957078;28;20531;-68
2022/09/15 00:32:25;;;;;;;0.47;0.20;;;;;;;-142.37;100.00;59669.53;4973961;28;20050;-67
2022/09/15 00:34:52;;;;;;;1.80;0.30;;;;;;;-142.37;100.00;59669.53;4974018;28;20038;-68
2022/09/15 00:37:18;;;;;;;1.00;0.20;;;;;;;-142.37;100.00;59669.53;4974207;28;20030;-68
2022/09/15 00:39:44;;;;;;;7.45;0.45;;;;;;;-142.37;100.00;59669.53;4974213;28;20037;-68
2022/09/15 00:42:18;;;;;;;0.55;0.28;;;;;;;-142.37;100.00;59669.53;4974102;28;20388;-68
2022/09/15 00:44:50;;;;;;;0.55;0.10;;;;;;;-142.37;100.00;59669.53;4974512;28;20034;-68
2022/09/15 00:47:19;;;;;;;2.58;0.10;;;;;;;-142.37;100.00;59669.53;4956898;28;20042;-68
2022/09/15 00:49:46;;;;;;;0.75;0.40;;;;;;;-142.37;100.00;59669.53;4974053;28;20026;-67
2022/09/15 00:52:19;;;;;;;0.73;0.32;;;;;;;-142.37;100.00;59669.53;4956504;28;20038;-67
2022/09/15 00:54:50;;;;;;;1.52;0.35;;;;;;;-142.37;100.00;59669.53;4972490;28;20038;-67
2022/09/15 00:57:21;;;;;;;3.70;0.25;;;;;;;-142.37;100.00;59669.53;4972522;28;20086;-68
2022/09/15 00:59:51;;;;;;;1.85;0.25;;;;;;;-142.37;100.00;59669.53;4956313;28;20026;-67
2022/09/15 01:02:31;;;;;;;1.40;0.10;;;;;;;-142.37;100.00;59669.53;4956475;28;20042;-67
2022/09/15 01:04:59;;;;;;;1.75;0.20;;;;;;;-142.37;100.00;59669.53;4973697;28;20062;-70
2022/09/15 01:07:34;;;;;;;1.60;0.30;;;;;;;-142.37;100.00;59669.53;4973736;28;20066;-68
2022/09/15 01:10:06;;;;;;;0.10;0.10;;;;;;;-142.37;100.00;59669.53;4973658;28;20027;-67
2022/09/15 01:12:32;;;;;;;0.75;0.28;;;;;;;-142.37;100.00;59669.53;4956153;28;20035;-68
2022/09/15 01:15:00;;;;;;;0.30;0.17;;;;;;;-142.37;100.00;59669.53;4956009;28;20081;-68
2022/09/15 01:18:02;;;;;;;0.65;0.10;;;;;;;-142.37;100.00;59669.53;4973464;28;20400;-67
2022/09/15 01:20:52;;;;;;;0.25;0.10;;;;;;;-142.37;100.00;59669.53;4972719;28;20038;-68
2022/09/15 01:23:43;;;;;;;3.20;0.38;;;;;;;-142.37;100.00;59669.53;4971878;28;20033;-68
2022/09/15 01:26:33;;;;;;;0.73;0.30;;;;;;;-142.37;100.00;59669.53;4972128;28;20031;-67
2022/09/15 01:29:38;;;;;;;0.55;0.20;;;;;;;-142.37;100.00;59669.53;4971905;28;20381;-67
2022/09/15 01:35:19;;;;;;;0.30;0.10;;;;;;;-142.37;100.00;59669.53;4973350;28;20054;-68
2022/09/15 01:37:54;;;;;;;0.50;0.25;;;;;;;-142.37;100.00;59669.53;4972276;28;20395;-68
2022/09/15 01:40:23;;;;;;;1.15;0.13;;;;;;;-142.37;100.00;59669.53;4973371;28;20057;-68
2022/09/15 01:42:51;;;;;;;0.35;0.20;;;;;;;-142.37;100.00;59669.53;4955751;28;20512;-68
2022/09/15 01:45:22;;;;;;;0.55;0.30;;;;;;;-142.37;100.00;59669.53;4973449;28;20027;-67
2022/09/15 01:47:53;;;;;;;1.75;0.25;;;;;;;-142.37;100.00;59669.53;4973273;28;20034;-67
2022/09/15 01:50:26;;;;;;;0.80;0.30;;;;;;;-142.37;100.00;59669.53;4955958;28;20033;-69
2022/09/15 01:52:56;;;;;;;0.85;0.20;;;;;;;-142.37;100.00;59669.53;4955745;28;20030;-68
2022/09/15 01:55:29;;;;;;;0.30;0.20;;;;;;;-142.37;100.00;59669.53;4955587;28;20030;-68
2022/09/15 01:57:57;;;;;;;1.50;0.40;;;;;;;-142.37;100.00;59669.53;4973290;28;20027;-67
2022/09/15 02:00:23;;;;;;;0.75;0.10;;;;;;;-142.37;100.00;59669.53;4955655;28;20022;-66
2022/09/15 02:03:00;;;;;;;1.27;0.10;;;;;;;-142.37;100.00;59669.53;4973180;28;20049;-68
2022/09/15 02:06:00;;;;;;;0.60;0.30;;;;;;;-142.37;100.00;59669.53;4973333;28;20121;-67
2022/09/15 02:08:37;;;;;;;0.40;0.28;;;;;;;-142.37;100.00;59669.53;4955733;28;20042;-66
2022/09/15 02:11:10;;;;;;;0.45;0.25;;;;;;;-142.37;100.00;59669.53;4955292;28;20030;-68
2022/09/15 02:14:10;;;;;;;4.68;0.20;;;;;;;-142.37;100.00;59669.53;4955561;28;20491;-67
2022/09/15 02:16:39;;;;;;;0.38;0.22;;;;;;;-142.37;100.00;59669.53;4971787;28;20033;-68
2022/09/15 02:19:07;;;;;;;1.52;0.40;;;;;;;-142.37;100.00;59669.53;4972858;28;20043;-67
2022/09/15 02:21:42;;;;;;;0.40;0.20;;;;;;;-142.37;100.00;59669.53;4972875;28;20035;-67
2022/09/15 02:24:17;;;;;;;1.73;0.35;;;;;;;-142.37;100.00;59669.53;4972722;28;20498;-66
2022/09/15 02:26:45;;;;;;;2.63;0.47;;;;;;;-142.37;100.00;59669.53;4955893;28;20499;-67
2022/09/15 02:29:15;;;;;;;0.90;0.35;;;;;;;-142.37;100.00;59669.53;4972872;28;20035;-66
2022/09/15 02:31:41;;;;;;;1.05;0.30;;;;;;;-142.37;100.00;59669.53;4973399;28;20026;-67
2022/09/15 02:34:12;;;;;;;2.97;0.73;;;;;;;-142.37;100.00;59669.53;4958666;28;20190;-67
2022/09/15 02:36:40;;;;;;;1.15;0.32;;;;;;;-142.37;100.00;59669.53;4958770;28;20035;-68
2022/09/15 02:39:13;;;;;;;2.63;0.50;;;;;;;-142.37;100.00;59669.53;4976324;28;20058;-67
2022/09/15 02:41:40;;;;;;;0.80;0.50;;;;;;;-142.37;100.00;59669.53;4958862;28;20555;-67
2022/09/15 02:44:08;;;;;;;2.85;0.43;;;;;;;-142.37;100.00;59669.53;4958999;28;20027;-66
2022/09/15 02:46:35;;;;;;;3.13;0.65;;;;;;;-142.37;100.00;59669.53;4976207;28;20037;-67
2022/09/15 02:49:02;;;;;;;1.17;0.40;;;;;;;-142.37;100.00;59669.53;4975804;28;20461;-67
2022/09/15 02:51:28;;;;;;;1.85;0.47;;;;;;;-142.37;100.00;59669.53;4958506;28;20031;-67
2022/09/15 02:53:53;;;;;;;2.25;0.43;;;;;;;-142.37;100.00;59669.53;4975971;28;20471;-68
2022/09/15 02:56:19;;;;;;;5.57;1.08;;;;;;;-142.37;100.00;59669.53;4976113;28;20042;-66
2022/09/15 02:58:45;;;;;;;2.47;0.30;;;;;;;-142.37;100.00;59669.53;4958666;28;20536;-68
2022/09/15 03:01:16;;;;;;;6.65;0.65;;;;;;;-142.37;100.00;59669.53;4975699;28;20439;-67
2022/09/15 03:03:43;;;;;;;0.55;0.30;;;;;;;-142.37;100.00;59669.53;4975776;28;20110;-67
2022/09/15 03:06:19;;;;;;;3.42;0.47;;;;;;;-142.37;100.00;59669.53;4958421;28;20057;-67
2022/09/15 03:08:51;;;;;;;5.15;0.75;;;;;;;-142.37;100.00;59669.53;4958498;28;20125;-67
2022/09/15 03:11:19;;;;;;;1.25;0.55;;;;;;;-142.37;100.00;59669.53;4975643;28;20135;-68
2022/09/15 03:13:45;;;;;;;2.03;0.60;;;;;;;-142.37;100.00;59669.53;4958514;28;20031;-67
2022/09/15 03:16:13;;;;;;;1.67;0.60;;;;;;;-142.37;100.00;59669.53;4975543;28;20027;-67
2022/09/15 03:18:40;;;;;;;3.60;0.77;;;;;;;-142.37;100.00;59669.53;4975450;28;20069;-67
2022/09/15 03:21:09;;;;;;;1.73;0.70;;;;;;;-142.37;100.00;59669.53;4975665;28;20023;-67
2022/09/15 03:23:34;;;;;;;2.70;0.77;;;;;;;-142.37;100.00;59669.53;4975549;28;20031;-67
2022/09/15 03:26:01;;;;;;;2.85;0.73;;;;;;;-142.37;100.00;59669.53;4958034;28;20030;-67
2022/09/15 03:28:27;;;;;;;2.30;0.43;;;;;;;-142.37;100.00;59669.53;4975206;28;20117;-67
2022/09/15 03:30:53;;;;;;;2.20;0.52;;;;;;;-142.37;100.00;59669.53;4975153;28;20031;-67
2022/09/15 03:33:22;;;;;;;2.58;0.80;;;;;;;-142.37;100.00;59669.53;4974792;28;20051;-67
2022/09/15 03:35:48;;;;;;;1.80;0.47;;;;;;;-142.37;100.00;59669.53;4975135;28;20090;-66
2022/09/15 03:38:15;;;;;;;1.55;0.35;;;;;;;-142.37;100.00;59669.53;4975173;28;20038;-66
2022/09/15 03:40:42;;;;;;;4.82;1.10;;;;;;;-142.37;100.00;59669.53;4975299;28;20038;-68
2022/09/15 03:43:11;;;;;;;2.83;0.73;;;;;;;-142.37;100.00;59669.53;4974227;28;20047;-68
2022/09/15 03:45:37;;;;;;;3.78;0.47;;;;;;;-142.37;100.00;59669.53;4974677;28;20027;-66
2022/09/15 03:48:06;;;;;;;1.42;0.45;;;;;;;-142.37;100.00;59669.53;4957727;28;20027;-67
2022/09/15 03:50:33;;;;;;;6.43;0.95;;;;;;;-142.37;100.00;59669.53;4974952;28;20026;-67
2022/09/15 03:53:00;;;;;;;1.95;0.82;;;;;;;-142.37;100.00;59669.53;4956947;28;20042;-66
2022/09/15 03:55:26;;;;;;;1.50;0.65;;;;;;;-142.37;100.00;59669.53;4974690;28;20116;-67
2022/09/15 03:57:52;;;;;;;0.85;0.50;;;;;;;-142.37;100.00;59669.53;4957395;28;20094;-66
2022/09/15 04:00:18;;;;;;;4.18;0.70;;;;;;;-142.37;100.00;59669.53;4974477;28;20558;-66
2022/09/15 04:02:44;;;;;;;1.10;0.40;;;;;;;-142.37;100.00;59669.53;4957493;28;20089;-66
2022/09/15 04:05:12;;;;;;;2.17;0.60;;;;;;;-142.37;100.00;59669.53;4956932;28;20035;-66
2022/09/15 04:07:39;;;;;;;2.00;0.50;;;;;;;-142.37;100.00;59669.53;4974685;28;20027;-67
2022/09/15 04:10:05;;;;;;;2.75;0.52;;;;;;;-142.37;100.00;59669.53;4974400;28;20501;-67
2022/09/15 04:12:31;;;;;;;5.38;0.93;;;;;;;-142.37;100.00;59669.53;4956711;28;20031;-67
2022/09/15 04:14:57;;;;;;;1.05;0.50;;;;;;;-142.37;100.00;59669.53;4974197;28;20042;-68
2022/09/15 04:17:23;;;;;;;4.35;1.20;;;;;;;-142.37;100.00;59669.53;4974771;28;20027;-68
2022/09/15 04:19:49;;;;;;;3.75;0.93;;;;;;;-142.37;100.00;59669.53;4974340;28;20499;-68
2022/09/15 04:22:14;;;;;;;0.57;0.50;;;;;;;-142.37;100.00;59669.53;4956303;28;20030;-67
2022/09/15 04:24:40;;;;;;;2.55;0.60;;;;;;;-142.37;100.00;59669.53;4973098;28;20479;-65
2022/09/15 04:27:06;;;;;;;3.28;0.93;;;;;;;-142.37;100.00;59669.53;4956164;28;20037;-68
2022/09/15 04:29:32;;;;;;;3.10;0.63;;;;;;;-142.37;100.00;59669.53;4973933;28;20037;-67
2022/09/15 04:31:57;;;;;;;3.95;1.00;;;;;;;-142.37;100.00;59669.53;4974318;28;20034;-67
2022/09/15 04:34:24;;;;;;;7.10;0.88;;;;;;;-142.37;100.00;59669.53;4973990;28;20078;-66
2022/09/15 04:36:49;;;;;;;0.88;0.50;;;;;;;-142.37;100.00;59669.53;4973931;28;20476;-66
2022/09/15 04:39:15;;;;;;;7.68;1.05;;;;;;;-142.37;100.00;59669.53;4956231;28;20041;-68
2022/09/15 04:41:41;;;;;;;2.97;0.57;;;;;;;-142.37;100.00;59669.53;4973651;28;20443;-67
2022/09/15 04:44:07;;;;;;;2.38;1.30;;;;;;;-142.37;100.00;59669.53;4956317;28;20031;-67
2022/09/15 04:46:33;;;;;;;6.13;0.90;;;;;;;-142.37;100.00;59669.53;4973864;28;20033;-67
2022/09/15 04:48:59;;;;;;;3.25;0.88;;;;;;;-142.37;100.00;59669.53;4955696;28;20486;-66
2022/09/15 04:51:26;;;;;;;3.80;0.60;;;;;;;-142.37;100.00;59669.53;4973525;28;20089;-67
2022/09/15 04:53:52;;;;;;;1.92;0.70;;;;;;;-142.37;100.00;59669.53;4973430;28;20041;-68
2022/09/15 04:56:20;;;;;;;2.08;0.93;;;;;;;-142.37;100.00;59669.53;4972996;28;20027;-67
2022/09/15 04:58:55;;;;;;;4.25;0.85;;;;;;;-142.37;100.00;59669.53;4955480;28;20113;-69
2022/09/15 05:01:27;;;;;;;2.65;0.80;;;;;;;-142.37;100.00;59669.53;4972921;28;20031;-66
2022/09/15 05:03:53;;;;;;;2.03;0.68;;;;;;;-142.37;100.00;59669.53;4955448;28;20074;-66
2022/09/15 05:06:26;;;;;;;1.75;0.80;;;;;;;-142.37;100.00;59669.53;4973000;28;20026;-67
2022/09/15 05:08:54;;;;;;;1.58;0.65;;;;;;;-142.37;100.00;59669.53;4972856;28;20062;-66
2022/09/15 05:11:21;;;;;;;2.03;0.63;;;;;;;-142.37;100.00;59669.53;4955653;28;20426;-67
2022/09/15 05:13:47;;;;;;;2.55;0.77;;;;;;;-142.37;100.00;59669.53;4973175;28;20562;-68
2022/09/15 05:16:19;;;;;;;2.78;0.85;;;;;;;-142.37;100.00;59669.53;4971876;28;20057;-67
2022/09/15 05:18:46;;;;;;;5.88;1.00;;;;;;;-142.37;100.00;59669.53;4955044;28;20038;-68
2022/09/15 05:21:15;;;;;;;5.35;0.85;;;;;;;-142.37;100.00;59669.53;4972149;28;20042;-67
2022/09/15 05:23:41;;;;;;;2.13;0.88;;;;;;;-142.37;100.00;59669.53;4972163;28;20035;-66
2022/09/15 05:26:10;;;;;;;3.70;0.77;;;;;;;-142.37;100.00;59669.53;4955360;28;20057;-67
2022/09/15 05:28:37;;;;;;;1.95;0.70;;;;;;;-142.37;100.00;59669.53;4955133;28;20031;-67
2022/09/15 05:31:08;;;;;;;2.20;1.00;;;;;;;-142.37;100.00;59669.53;4954601;28;20451;-68
2022/09/15 05:33:34;;;;;;;5.70;1.33;;;;;;;-142.37;100.00;59669.53;4955083;28;20046;-67
2022/09/15 05:36:01;;;;;;;2.95;1.00;;;;;;;-142.37;100.00;59669.53;4971970;28;20039;-68
2022/09/15 05:38:29;;;;;;;10.55;2.70;;;;;;;-142.37;100.00;59669.53;4954495;28;20065;-67
2022/09/15 05:41:00;;;;;;;4.22;1.23;;;;;;;-142.37;100.00;59669.53;4954697;28;20118;-68
2022/09/15 05:43:30;;;;;;;4.75;0.73;;;;;;;-142.37;100.00;59669.53;4971843;28;20054;-67
2022/09/15 05:45:55;;;;;;;2.28;0.63;;;;;;;-142.37;100.00;59669.53;4972514;28;20126;-67
2022/09/15 05:48:21;;;;;;;3.10;0.80;;;;;;;-142.37;100.00;59669.53;4954219;28;20035;-69
2022/09/15 05:50:50;;;;;;;3.00;0.85;;;;;;;-142.37;100.00;59669.53;4972045;28;20121;-68
2022/09/15 05:53:16;;;;;;;1.67;0.70;;;;;;;-142.37;100.00;59669.53;4954123;28;20496;-68
2022/09/15 05:55:41;;;;;;;2.47;0.63;;;;;;;-142.37;100.00;59669.53;4970132;28;20501;-68
2022/09/15 05:58:07;;;;;;;2.08;0.68;;;;;;;-142.37;100.00;59669.53;4971444;28;20157;-69
2022/09/15 06:00:33;;;;;;;4.95;0.80;;;;;;;-142.37;100.00;59669.53;4953495;28;20022;-68
2022/09/15 06:02:59;;;;;;;4.72;0.98;;;;;;;-142.37;100.00;59669.53;4971098;28;20035;-69
2022/09/15 06:05:25;;;;;;;5.70;1.05;;;;;;;-142.37;100.00;59669.53;4971810;28;20042;-69
2022/09/15 06:07:53;;;;;;;6.10;1.60;;;;;;;-142.37;100.00;59669.53;4973925;28;20038;-68
2022/09/15 06:10:23;;;;;;;1.95;0.70;;;;;;;-142.37;100.00;59669.53;4975319;28;20138;-68
2022/09/15 06:12:52;;;;;;;2.97;0.73;;;;;;;-142.37;100.00;59669.53;4975159;28;20027;-69
2022/09/15 06:15:19;;;;;;;3.83;0.95;;;;;;;-142.37;100.00;59669.53;4974179;28;20027;-68
2022/09/15 06:17:45;;;;;;;5.57;2.25;;;;;;;-142.37;100.00;59669.53;4957368;28;20035;-68
2022/09/15 06:20:11;;;;;;;3.60;0.73;;;;;;;-142.37;100.00;59669.53;4957241;28;20466;-68
2022/09/15 06:22:37;;;;;;;4.75;1.35;;;;;;;-142.37;100.00;59669.53;4957826;28;20030;-69
2022/09/15 06:25:03;;;;;;;1.35;0.70;;;;;;;-142.37;100.00;59669.53;4975159;28;20030;-68
2022/09/15 06:27:29;;;;;;;4.00;0.60;;;;;;;-142.37;100.00;59669.53;4975617;28;20439;-69
2022/09/15 06:29:54;;;;;;;8.65;0.40;;;;;;;-142.37;100.00;59669.53;4975063;28;20099;-67
2022/09/15 06:32:20;;;;;;;2.08;0.55;;;;;;;-142.37;100.00;59669.53;4957248;28;20068;-68
2022/09/15 06:34:46;;;;;;;4.72;1.15;;;;;;;-142.37;100.00;59669.53;4974997;28;20142;-69
2022/09/15 06:37:11;;;;;;;4.18;0.70;;;;;;;-142.37;100.00;59669.53;4974563;28;20035;-68
2022/09/15 06:39:38;;;;;;;2.10;0.68;;;;;;;-142.37;100.00;59669.53;4974967;28;20133;-68
2022/09/15 06:42:03;;;;;;;2.05;0.50;;;;;;;-142.37;100.00;59669.53;4975078;28;20118;-69
2022/09/15 06:44:29;;;;;;;4.03;0.73;;;;;;;-142.37;100.00;59669.53;4975084;28;20110;-68
2022/09/15 06:46:55;;;;;;;1.02;0.63;;;;;;;-142.37;100.00;59669.53;4974740;28;20028;-68
2022/09/15 06:49:20;;;;;;;0.98;0.52;;;;;;;-142.37;100.00;59669.53;4975219;28;20027;-70
2022/09/15 06:51:46;;;;;;;4.13;1.05;;;;;;;-142.37;100.00;59669.53;4957680;28;20181;-71
2022/09/15 06:54:14;;;;;;;1.13;0.60;;;;;;;-142.37;100.00;59669.53;4975199;28;20440;-70
2022/09/15 06:56:41;;;;;;;4.00;0.60;;;;;;;-142.37;100.00;59669.53;4975049;28;20027;-69
2022/09/15 06:59:08;;;;;;;2.25;1.02;;;;;;;-142.37;100.00;59669.53;4974735;28;20085;-68
2022/09/15 07:01:34;;;;;;;1.23;0.82;;;;;;;-142.37;100.00;59669.53;4974832;28;20106;-68
2022/09/15 07:04:03;;;;;;;1.50;0.80;;;;;;;-142.37;100.00;59669.53;4957320;28;20046;-69
2022/09/15 07:06:31;;;;;;;4.05;0.60;;;;;;;-142.37;100.00;59669.53;4974645;28;20097;-68
2022/09/15 07:08:57;;;;;;;2.65;0.50;;;;;;;-142.37;100.00;59669.53;4974832;28;20035;-69
2022/09/15 07:11:24;;;;;;;0.63;0.38;;;;;;;-142.37;100.00;59669.53;4957807;28;20035;-69
2022/09/15 07:13:50;;;;;;;3.17;0.47;;;;;;;-142.37;100.00;59669.53;4974473;28;20066;-69
2022/09/15 07:16:17;;;;;;;2.50;0.40;;;;;;;-142.37;100.00;59669.53;4974742;28;20086;-68
2022/09/15 07:18:44;;;;;;;2.78;0.45;;;;;;;-142.37;100.00;59669.53;4973298;28;20031;-69
2022/09/15 07:21:13;;;;;;;1.05;0.43;;;;;;;-142.37;100.00;59669.53;4974751;28;20463;-68
2022/09/15 07:23:39;;;;;;;0.88;0.52;;;;;;;-142.37;100.00;59669.53;4957358;28;20456;-69
2022/09/15 07:26:09;;;;;;;2.10;1.00;;;;;;;-142.37;100.00;59669.53;4974073;28;20034;-69
2022/09/15 07:28:36;;;;;;;1.50;0.35;;;;;;;-142.37;100.00;59669.53;4956959;28;20089;-70
2022/09/15 07:31:03;;;;;;;1.63;0.43;;;;;;;-142.37;100.00;59669.53;4974366;28;20040;-69
2022/09/15 07:33:29;;;;;;;3.13;0.50;;;;;;;-142.37;100.00;59669.53;4956705;28;20043;-69
2022/09/15 07:35:55;;;;;;;3.90;0.43;;;;;;;-142.37;100.00;59669.53;4974397;28;20035;-69
2022/09/15 07:38:21;;;;;;;3.95;0.75;;;;;;;-142.37;100.00;59669.53;4974231;28;20118;-69
2022/09/15 07:40:47;;;;;;;3.17;0.70;;;;;;;-142.37;100.00;59669.53;4956889;28;20097;-69
2022/09/15 07:43:14;;;;;;;2.20;0.63;;;;;;;-142.37;100.00;59669.53;4974207;28;20089;-69
2022/09/15 07:45:40;;;;;;;5.35;0.73;;;;;;;-142.37;100.00;59669.53;4974270;28;20038;-69
2022/09/15 07:48:05;;;;;;;1.73;0.63;;;;;;;-142.37;100.00;59669.53;4957047;28;20578;-69
2022/09/15 07:50:31;;;;;;;2.55;0.47;;;;;;;-142.37;100.00;59669.53;4956709;28;20027;-70
2022/09/15 07:52:57;;;;;;;1.45;0.30;;;;;;;-142.37;100.00;59669.53;4974374;28;20122;-70
2022/09/15 07:55:23;;;;;;;1.05;0.43;;;;;;;-142.37;100.00;59669.53;4956581;28;20074;-69
2022/09/15 07:58:00;;;;;;;10.30;7.30;;;;;;;-142.37;100.00;59669.53;4973950;28;20045;-72
2022/09/15 08:00:26;;;;;;;2.63;0.45;;;;;;;-142.37;100.00;59669.53;4956452;28;20030;-71
2022/09/15 08:02:52;;;;;;;4.20;0.80;;;;;;;-142.37;100.00;59669.53;4973953;28;20027;-70
2022/09/15 08:05:18;;;;;;;1.30;0.40;;;;;;;-142.37;100.00;59669.53;4973992;28;20033;-70
2022/09/15 08:07:44;;;;;;;0.80;0.20;;;;;;;-142.37;100.00;59669.53;4956588;28;20118;-71
2022/09/15 08:10:10;;;;;;;1.48;0.50;;;;;;;-142.37;100.00;59669.53;4973756;28;20480;-71
2022/09/15 08:12:36;;;;;;;1.20;0.50;;;;;;;-142.37;100.00;59669.53;4973859;28;20066;-73
2022/09/15 08:15:02;;;;;;;1.55;0.30;;;;;;;-142.37;100.00;59669.53;4955985;28;20073;-71
2022/09/15 08:17:28;;;;;;;3.72;0.95;;;;;;;-142.37;100.00;59669.53;4956334;28;20373;-73
2022/09/15 08:19:53;;;;;;;0.50;0.40;;;;;;;-142.37;100.00;59669.53;4973978;28;20034;-71
2022/09/15 08:22:19;;;;;;;3.63;1.77;;;;;;;-142.37;100.00;59669.53;4956090;28;20484;-69
2022/09/15 08:24:45;;;;;;;2.78;0.50;;;;;;;-142.37;100.00;59669.53;4956431;28;20193;-72
2022/09/15 08:27:10;;;;;;;0.85;0.50;;;;;;;-142.37;100.00;59669.53;4956490;28;20487;-72
2022/09/15 08:29:36;;;;;;;0.50;0.30;;;;;;;-142.37;100.00;59669.53;4973561;28;20085;-71
2022/09/15 08:32:02;;;;;;;0.30;0.30;;;;;;;-142.37;100.00;59669.53;4956224;28;20053;-69
2022/09/15 08:34:29;;;;;;;0.95;0.40;;;;;;;-142.37;100.00;59669.53;4973063;28;20050;-72
2022/09/15 08:36:54;;;;;;;0.35;0.20;;;;;;;-142.37;100.00;59669.53;4956025;28;20476;-72
2022/09/15 08:39:20;;;;;;;0.98;0.60;;;;;;;-142.37;100.00;59669.53;4972955;28;20045;-72
2022/09/15 08:41:48;;;;;;;5.70;2.10;;;;;;;-142.37;100.00;59669.53;4973529;28;20384;-73
2022/09/15 08:44:32;;;;;;;3.22;0.60;;;;;;;-142.37;100.00;59669.53;4956700;28;20078;-72
2022/09/15 08:47:13;;;;;;;3.57;1.13;;;;;;;-142.37;100.00;59669.53;4971551;28;20060;-74
2022/09/15 08:49:47;;;;;;;1.20;0.30;;;;;;;-142.37;100.00;59669.53;4971987;28;20035;-72
2022/09/15 08:52:34;;;;;;;;;;;;;;;-142.37;100.00;59669.53;4974307;28;20034;-73
2022/09/15 08:55:08;;;;;;;0.55;0.28;;;;;;;-142.37;100.00;59669.53;4955828;28;19984;-70
2022/09/15 08:57:34;;;;;;;0.85;0.43;;;;;;;-142.37;100.00;59669.53;4972661;28;20046;-70
2022/09/15 09:00:00;;;;;;;0.50;0.47;;;;;;;-142.37;100.00;59669.53;4972582;28;20038;-70
2022/09/15 09:02:55;;;;;;;0.50;0.30;;;;;;;-142.37;100.00;59669.53;4972419;28;20041;-71
2022/09/15 09:05:46;;;;;;;4.93;0.68;;;;;;;-142.37;100.00;59669.53;4972774;28;20030;-70
2022/09/15 09:08:11;;;;;;;2.47;0.30;;;;;;;-142.37;100.00;59669.53;4955421;28;20030;-70
2022/09/15 09:10:43;;;;;;;2.63;1.77;;;;;;;-142.37;100.00;59669.53;4972624;28;20178;-71
2022/09/15 09:13:19;;;;;;;1.33;0.52;;;;;;;-142.37;100.00;59669.53;4972241;28;20027;-71
2022/09/15 09:16:03;;;;;;;5.55;0.90;;;;;;;-142.37;100.00;59669.53;4972363;28;20030;-70
2022/09/15 09:18:52;;;;;;;0.60;0.60;;;;;;;-142.37;100.00;59669.53;4972546;28;20459;-70
2022/09/15 09:21:23;;;;;;;0.55;0.30;;;;;;;-142.37;100.00;59669.53;4972251;28;20265;-70
2022/09/15 09:23:56;;;;;;;2.30;0.40;;;;;;;-142.37;100.00;59669.53;4973238;28;20451;-70
2022/09/15 09:26:22;;;;;;;1.10;0.52;;;;;;;-142.37;100.00;59669.53;4973326;28;20039;-71
2022/09/15 09:28:58;;;;;;;1.05;0.40;;;;;;;-142.37;100.00;59669.53;4955021;28;20039;-73
2022/09/15 09:31:26;;;;;;;3.70;1.75;;;;;;;-142.37;100.00;59669.53;4953903;28;20027;-70
2022/09/15 09:34:05;;;;;;;0.77;0.30;;;;;;;-142.37;100.00;59669.53;4972784;28;20463;-70
2022/09/15 09:36:32;;;;;;;0.50;0.32;;;;;;;-142.37;100.00;59669.53;4955004;28;20113;-71
2022/09/15 09:39:00;;;;;;;0.20;0.13;;;;;;;-142.37;100.00;59669.53;4954915;28;20034;-71
2022/09/15 09:41:34;;;;;;;0.98;0.38;;;;;;;-142.37;100.00;59669.53;4971297;28;20031;-70
2022/09/15 09:44:03;;;;;;;4.00;0.30;;;;;;;-142.37;100.00;59669.53;4977203;28;20117;-70
2022/09/15 09:46:29;;;;;;;0.63;0.50;;;;;;;-142.37;100.00;59669.53;4976962;28;20035;-73
2022/09/15 09:49:15;;;;;;;2.92;0.70;;;;;;;-142.37;100.00;59669.53;4976940;28;20042;-72
2022/09/15 09:51:58;;;;;;;3.28;0.47;;;;;;;-142.37;100.00;59669.53;4976797;28;20027;-71
2022/09/15 09:54:27;;;;;;;1.88;0.60;;;;;;;-142.37;100.00;59669.53;4959445;28;20035;-72
2022/09/15 09:56:54;;;;;;;2.63;0.32;;;;;;;-142.37;100.00;59669.53;4977193;28;20034;-71
2022/09/15 09:59:42;;;;;;;2.13;0.50;;;;;;;-142.37;100.00;59669.53;4976494;28;20484;-70
2022/09/15 10:02:11;;;;;;;1.55;0.90;;;;;;;-142.37;100.00;59669.53;4959047;28;20027;-72
2022/09/15 10:04:42;;;;;;;4.63;1.08;;;;;;;-142.37;100.00;59669.53;4974553;28;20031;-71
2022/09/15 10:07:09;;;;;;;3.97;0.80;;;;;;;-142.37;100.00;59669.53;4976078;28;20066;-70
2022/09/15 10:09:36;;;;;;;1.85;0.70;;;;;;;-142.37;100.00;59669.53;4976321;28;20476;-70
2022/09/15 10:12:03;;;;;;;4.40;0.93;;;;;;;-142.37;100.00;59669.53;4975624;28;20038;-72
2022/09/15 10:14:34;;;;;;;1.27;0.60;;;;;;;-142.37;100.00;59669.53;4974945;28;20035;-70
2022/09/15 10:16:59;;;;;;;0.65;0.30;;;;;;;-142.37;100.00;59669.53;4975222;28;20425;-72
2022/09/15 10:19:27;;;;;;;2.17;1.25;;;;;;;-142.37;100.00;59669.53;4975551;28;20077;-70
2022/09/15 10:21:53;;;;;;;1.85;0.45;;;;;;;-142.37;100.00;59669.53;4975975;28;20121;-73
2022/09/15 10:24:34;;;;;;;0.40;0.30;;;;;;;-142.37;100.00;59669.53;4976064;28;20079;-72
2022/09/15 10:27:07;;;;;;;3.58;0.63;;;;;;;-142.37;100.00;59669.53;4975377;28;20056;-72
2022/09/15 10:29:38;;;;;;;2.75;0.95;;;;;;;-142.37;100.00;59669.53;4975278;28;20062;-72
2022/09/15 10:32:22;;;;;;;0.40;0.30;;;;;;;-142.37;100.00;59669.53;4975642;28;20034;-70
2022/09/15 10:34:48;;;;;;;1.88;0.30;;;;;;;-142.37;100.00;59669.53;4975258;28;20050;-71
2022/09/15 10:37:31;;;;;;;4.90;2.58;;;;;;;-142.37;100.00;59669.53;4974851;28;20027;-71
2022/09/15 10:40:04;;;;;;;1.30;0.20;;;;;;;-142.37;100.00;59669.53;4975584;28;20026;-70
2022/09/15 10:42:50;;;;;;;0.40;0.30;;;;;;;-142.37;100.00;59669.53;4975187;28;20113;-70
2022/09/15 10:45:18;;;;;;;0.60;0.20;;;;;;;-142.37;100.00;59669.53;4957777;28;20461;-71
2022/09/15 10:48:08;;;;;;;0.35;0.17;;;;;;;-142.37;100.00;59669.53;4975132;28;20034;-71
2022/09/15 10:50:49;;;;;;;4.50;0.88;;;;;;;-142.37;100.00;59669.53;4973195;28;20031;-70
2022/09/15 10:53:39;;;;;;;4.20;1.00;;;;;;;-142.37;100.00;59669.53;4974225;28;20110;-72
2022/09/15 10:56:40;;;;;;;2.53;0.60;;;;;;;-142.37;100.00;59669.53;4973133;28;20122;-71
2022/09/15 10:59:27;;;;;;;0.73;0.30;;;;;;;-142.37;100.00;59669.53;4965728;28;20117;-70
2022/09/15 11:02:40;;;;;;;0.93;0.43;;;;;;;-142.37;100.00;59669.53;4973597;28;20035;-70
2022/09/15 11:05:21;;;;;;;1.10;0.40;;;;;;;-142.37;100.00;59669.53;4899398;29;20040;-72
2022/09/15 11:08:11;;;;;;;2.45;0.40;;;;;;;-142.37;100.00;59669.53;4973875;28;20081;-70
2022/09/15 11:11:06;;;;;;;3.03;1.30;;;;;;;-142.37;100.00;59669.53;4973427;28;20444;-69
2022/09/15 11:13:31;;;;;;;1.90;0.30;;;;;;;-142.37;100.00;59669.53;4957323;28;20073;-70
2022/09/15 11:16:12;;;;;;;0.40;0.30;;;;;;;-142.37;100.00;59669.53;4972971;28;20840;-70
2022/09/15 11:18:47;;;;;;;0.30;0.13;;;;;;;-142.37;100.00;59669.53;4975136;28;20027;-70
2022/09/15 11:21:28;;;;;;;0.68;0.22;;;;;;;-142.37;100.00;59669.53;4974638;28;20027;-69
2022/09/15 11:24:03;;;;;;;0.73;0.47;;;;;;;-142.37;100.00;59669.53;4973548;28;20141;-71
2022/09/15 11:26:31;;;;;;;;;;;;;;;-142.37;100.00;59669.53;4975708;28;20130;-70